sensor_id;sensor_type;location;lat;lon;timestamp;P1;durP1;ratioP1;P2;durP2;ratioP2
60032;SDS011;45905;50.570;10.428;2022-11-12T08:22:40;7.03;;;3.70;;
60032;SDS011;45905;50.570;10.428;2022-11-12T08:25:32;8.43;;;4.17;;
60032;SDS011;45905;50.570;10.428;2022-11-12T08:28:18;9.33;;;3.47;;
60032;SDS011;45905;50.570;10.428;2022-11-12T08:31:12;5.27;;;3.83;;
60032;SDS011;45905;50.570;10.428;2022-11-12T08:34:00;8.10;;;4.63;;
60032;SDS011;45905;50.570;10.428;2022-11-12T08:36:56;3.73;;;2.80;;
60032;SDS011;45905;50.570;10.428;2022-11-12T08:39:42;5.40;;;3.90;;
60032;SDS011;45905;50.570;10.428;2022-11-12T08:42:27;8.40;;;3.50;;
60032;SDS011;45905;50.570;10.428;2022-11-12T08:45:13;10.93;;;5.73;;
60032;SDS011;45905;50.570;10.428;2022-11-12T08:47:59;6.70;;;4.87;;
60032;SDS011;45905;50.570;10.428;2022-11-12T08:50:47;11.10;;;4.77;;
60032;SDS011;45905;50.570;10.428;2022-11-12T08:53:33;6.20;;;3.70;;
60032;SDS011;45905;50.570;10.428;2022-11-12T08:56:19;5.73;;;3.50;;
60032;SDS011;45905;50.570;10.428;2022-11-12T08:59:05;7.27;;;4.40;;
60032;SDS011;45905;50.570;10.428;2022-11-12T09:01:51;6.70;;;3.67;;
60032;SDS011;45905;50.570;10.428;2022-11-12T09:04:37;4.87;;;3.20;;
60032;SDS011;45905;50.570;10.428;2022-11-12T09:07:22;11.83;;;2.87;;
60032;SDS011;45905;50.570;10.428;2022-11-12T09:10:28;6.97;;;4.50;;
60032;SDS011;45905;50.570;10.428;2022-11-12T09:13:14;6.50;;;4.57;;
60032;SDS011;45905;50.570;10.428;2022-11-12T09:16:05;16.07;;;3.93;;
60032;SDS011;45905;50.570;10.428;2022-11-12T09:18:53;9.00;;;3.20;;
60032;SDS011;45905;50.570;10.428;2022-11-12T09:21:39;6.03;;;4.00;;
60032;SDS011;45905;50.570;10.428;2022-11-12T09:24:24;5.60;;;2.77;;
60032;SDS011;45905;50.570;10.428;2022-11-12T09:27:09;7.37;;;3.40;;
60032;SDS011;45905;50.570;10.428;2022-11-12T09:29:55;7.60;;;4.57;;
60032;SDS011;45905;50.570;10.428;2022-11-12T09:32:41;12.03;;;7.03;;
60032;SDS011;45905;50.570;10.428;2022-11-12T09:35:26;4.60;;;3.50;;
60032;SDS011;45905;50.570;10.428;2022-11-12T09:38:13;7.67;;;4.90;;
60032;SDS011;45905;50.570;10.428;2022-11-12T09:41:18;7.20;;;4.53;;
60032;SDS011;45905;50.570;10.428;2022-11-12T09:44:11;6.67;;;4.57;;
60032;SDS011;45905;50.570;10.428;2022-11-12T09:47:17;8.50;;;5.07;;
60032;SDS011;45905;50.570;10.428;2022-11-12T09:50:26;7.63;;;3.23;;
60032;SDS011;45905;50.570;10.428;2022-11-12T09:53:19;7.80;;;4.07;;
60032;SDS011;45905;50.570;10.428;2022-11-12T09:56:18;9.87;;;6.70;;
60032;SDS011;45905;50.570;10.428;2022-11-12T09:59:12;9.30;;;5.67;;
60032;SDS011;45905;50.570;10.428;2022-11-12T10:01:59;4.37;;;3.53;;
60032;SDS011;45905;50.570;10.428;2022-11-12T10:11:38;7.40;;;4.40;;
60032;SDS011;45905;50.570;10.428;2022-11-12T10:25:16;7.27;;;5.17;;
60032;SDS011;45905;50.570;10.428;2022-11-12T10:28:10;9.50;;;7.20;;
60032;SDS011;45905;50.570;10.428;2022-11-12T10:31:13;6.80;;;4.47;;
60032;SDS011;45905;50.570;10.428;2022-11-12T10:39:50;7.63;;;4.70;;
60032;SDS011;45905;50.570;10.428;2022-11-12T10:42:36;13.87;;;4.70;;
60032;SDS011;45905;50.570;10.428;2022-11-12T10:45:50;6.93;;;4.83;;
60032;SDS011;45905;50.570;10.428;2022-11-12T10:48:36;9.30;;;5.63;;
60032;SDS011;45905;50.570;10.428;2022-11-12T10:51:26;9.20;;;5.33;;
60032;SDS011;45905;50.570;10.428;2022-11-12T10:57:21;10.70;;;5.93;;
60032;SDS011;45905;50.570;10.428;2022-11-12T11:03:00;10.20;;;4.20;;
60032;SDS011;45905;50.570;10.428;2022-11-12T11:08:50;9.23;;;4.40;;
60032;SDS011;45905;50.570;10.428;2022-11-12T11:11:51;14.13;;;4.90;;
60032;SDS011;45905;50.570;10.428;2022-11-12T11:14:38;9.93;;;5.00;;
60032;SDS011;45905;50.570;10.428;2022-11-12T11:17:24;11.17;;;4.93;;
60032;SDS011;45905;50.570;10.428;2022-11-12T11:26:51;5.80;;;3.80;;
60032;SDS011;45905;50.570;10.428;2022-11-12T11:39:02;5.10;;;3.83;;
60032;SDS011;45905;50.570;10.428;2022-11-12T11:52:44;7.13;;;5.20;;
60032;SDS011;45905;50.570;10.428;2022-11-12T11:55:55;16.53;;;4.90;;
60032;SDS011;45905;50.570;10.428;2022-11-12T11:59:15;8.70;;;4.90;;
60032;SDS011;45905;50.570;10.428;2022-11-12T12:05:52;10.07;;;5.00;;
60032;SDS011;45905;50.570;10.428;2022-11-12T12:09:00;21.80;;;10.50;;
60032;SDS011;45905;50.570;10.428;2022-11-12T12:12:03;18.50;;;8.87;;
60032;SDS011;45905;50.570;10.428;2022-11-12T12:18:23;28.37;;;6.73;;
60032;SDS011;45905;50.570;10.428;2022-11-12T12:21:43;11.77;;;6.70;;
60032;SDS011;45905;50.570;10.428;2022-11-12T12:24:47;9.80;;;5.00;;
60032;SDS011;45905;50.570;10.428;2022-11-12T12:27:46;9.17;;;5.90;;
60032;SDS011;45905;50.570;10.428;2022-11-12T12:30:44;7.53;;;5.20;;
60032;SDS011;45905;50.570;10.428;2022-11-12T12:33:42;8.60;;;4.70;;
60032;SDS011;45905;50.570;10.428;2022-11-12T12:36:40;9.50;;;5.43;;
60032;SDS011;45905;50.570;10.428;2022-11-12T12:42:53;8.03;;;5.67;;
60032;SDS011;45905;50.570;10.428;2022-11-12T12:45:47;10.73;;;5.77;;
60032;SDS011;45905;50.570;10.428;2022-11-12T12:48:33;9.83;;;5.10;;
60032;SDS011;45905;50.570;10.428;2022-11-12T12:51:27;23.67;;;11.83;;
60032;SDS011;45905;50.570;10.428;2022-11-12T12:57:39;12.47;;;5.87;;
60032;SDS011;45905;50.570;10.428;2022-11-12T13:00:26;12.00;;;6.77;;
60032;SDS011;45905;50.570;10.428;2022-11-12T13:06:39;11.67;;;5.23;;
60032;SDS011;45905;50.570;10.428;2022-11-12T13:09:37;7.77;;;4.60;;
60032;SDS011;45905;50.570;10.428;2022-11-12T13:12:38;7.17;;;3.77;;
60032;SDS011;45905;50.570;10.428;2022-11-12T13:16:54;5.83;;;4.13;;
60032;SDS011;45905;50.570;10.428;2022-11-12T13:25:24;6.87;;;4.77;;
60032;SDS011;45905;50.570;10.428;2022-11-12T13:28:13;5.90;;;3.90;;
60032;SDS011;45905;50.570;10.428;2022-11-12T13:30:59;5.30;;;2.97;;
60032;SDS011;45905;50.570;10.428;2022-11-12T13:33:48;5.97;;;4.43;;
60032;SDS011;45905;50.570;10.428;2022-11-12T13:36:33;5.07;;;3.70;;
60032;SDS011;45905;50.570;10.428;2022-11-12T13:39:19;7.23;;;4.63;;
60032;SDS011;45905;50.570;10.428;2022-11-12T13:42:14;6.10;;;3.53;;
60032;SDS011;45905;50.570;10.428;2022-11-12T13:45:22;6.50;;;3.50;;
60032;SDS011;45905;50.570;10.428;2022-11-12T13:48:12;9.00;;;4.67;;
60032;SDS011;45905;50.570;10.428;2022-11-12T13:51:11;8.10;;;3.80;;
60032;SDS011;45905;50.570;10.428;2022-11-12T13:54:24;7.37;;;4.93;;
60032;SDS011;45905;50.570;10.428;2022-11-12T14:00:08;10.37;;;4.47;;
60032;SDS011;45905;50.570;10.428;2022-11-12T14:03:01;10.33;;;4.57;;
60032;SDS011;45905;50.570;10.428;2022-11-12T14:05:50;25.17;;;6.00;;
60032;SDS011;45905;50.570;10.428;2022-11-12T14:17:38;9.60;;;5.70;;
60032;SDS011;45905;50.570;10.428;2022-11-12T14:20:40;12.43;;;6.27;;
60032;SDS011;45905;50.570;10.428;2022-11-12T14:23:26;8.83;;;5.33;;
60032;SDS011;45905;50.570;10.428;2022-11-12T14:26:13;18.40;;;7.10;;
60032;SDS011;45905;50.570;10.428;2022-11-12T14:29:27;11.87;;;6.80;;
60032;SDS011;45905;50.570;10.428;2022-11-12T14:32:19;8.10;;;4.53;;
60032;SDS011;45905;50.570;10.428;2022-11-12T14:35:25;8.90;;;4.20;;
60032;SDS011;45905;50.570;10.428;2022-11-12T14:41:21;9.97;;;5.37;;
60032;SDS011;45905;50.570;10.428;2022-11-12T14:44:09;9.17;;;5.50;;
60032;SDS011;45905;50.570;10.428;2022-11-12T14:47:04;8.87;;;5.37;;
60032;SDS011;45905;50.570;10.428;2022-11-12T14:49:50;9.73;;;5.33;;
60032;SDS011;45905;50.570;10.428;2022-11-12T14:52:36;14.67;;;7.00;;
60032;SDS011;45905;50.570;10.428;2022-11-12T14:55:31;10.00;;;5.23;;
60032;SDS011;45905;50.570;10.428;2022-11-12T14:58:20;7.30;;;4.93;;
60032;SDS011;45905;50.570;10.428;2022-11-12T15:01:19;9.20;;;4.90;;
60032;SDS011;45905;50.570;10.428;2022-11-12T15:04:49;15.73;;;5.70;;
60032;SDS011;45905;50.570;10.428;2022-11-12T15:07:53;8.40;;;5.77;;
60032;SDS011;45905;50.570;10.428;2022-11-12T15:10:45;8.93;;;4.77;;
60032;SDS011;45905;50.570;10.428;2022-11-12T15:13:36;8.97;;;5.23;;
60032;SDS011;45905;50.570;10.428;2022-11-12T15:16:26;7.87;;;5.40;;
60032;SDS011;45905;50.570;10.428;2022-11-12T15:19:22;11.63;;;5.90;;
60032;SDS011;45905;50.570;10.428;2022-11-12T15:22:20;10.63;;;4.40;;
60032;SDS011;45905;50.570;10.428;2022-11-12T15:25:18;14.20;;;5.33;;
60032;SDS011;45905;50.570;10.428;2022-11-12T15:28:11;6.93;;;3.83;;
60032;SDS011;45905;50.570;10.428;2022-11-12T15:31:18;5.60;;;4.20;;
60032;SDS011;45905;50.570;10.428;2022-11-12T15:37:24;14.50;;;5.13;;
60032;SDS011;45905;50.570;10.428;2022-11-12T15:40:16;7.63;;;5.57;;
60032;SDS011;45905;50.570;10.428;2022-11-12T15:43:09;5.50;;;4.93;;
60032;SDS011;45905;50.570;10.428;2022-11-12T15:46:01;6.17;;;3.63;;
60032;SDS011;45905;50.570;10.428;2022-11-12T15:48:47;5.43;;;3.53;;
60032;SDS011;45905;50.570;10.428;2022-11-12T15:51:40;3.50;;;3.13;;
60032;SDS011;45905;50.570;10.428;2022-11-12T15:54:25;6.20;;;3.80;;
60032;SDS011;45905;50.570;10.428;2022-11-12T15:57:12;4.40;;;3.20;;
60032;SDS011;45905;50.570;10.428;2022-11-12T16:00:04;3.30;;;3.00;;
60032;SDS011;45905;50.570;10.428;2022-11-12T16:03:13;4.37;;;2.70;;
60032;SDS011;45905;50.570;10.428;2022-11-12T16:06:03;3.83;;;3.53;;
60032;SDS011;45905;50.570;10.428;2022-11-12T16:08:53;2.90;;;2.40;;
60032;SDS011;45905;50.570;10.428;2022-11-12T16:11:39;4.00;;;3.17;;
60032;SDS011;45905;50.570;10.428;2022-11-12T16:14:24;4.63;;;3.20;;
60032;SDS011;45905;50.570;10.428;2022-11-12T16:17:13;2.60;;;2.30;;
60032;SDS011;45905;50.570;10.428;2022-11-12T16:20:01;3.07;;;1.83;;
60032;SDS011;45905;50.570;10.428;2022-11-12T16:22:56;2.77;;;1.93;;
60032;SDS011;45905;50.570;10.428;2022-11-12T16:25:42;2.30;;;1.50;;
60032;SDS011;45905;50.570;10.428;2022-11-12T16:28:29;2.70;;;1.73;;
60032;SDS011;45905;50.570;10.428;2022-11-12T16:31:14;3.10;;;2.23;;
60032;SDS011;45905;50.570;10.428;2022-11-12T16:34:00;6.20;;;3.87;;
60032;SDS011;45905;50.570;10.428;2022-11-12T16:36:46;7.30;;;4.23;;
60032;SDS011;45905;50.570;10.428;2022-11-12T16:39:32;2.80;;;2.17;;
60032;SDS011;45905;50.570;10.428;2022-11-12T16:42:17;2.00;;;1.87;;
60032;SDS011;45905;50.570;10.428;2022-11-12T16:45:03;3.10;;;2.53;;
60032;SDS011;45905;50.570;10.428;2022-11-12T16:47:53;3.93;;;2.50;;
60032;SDS011;45905;50.570;10.428;2022-11-12T16:50:40;3.53;;;3.07;;
60032;SDS011;45905;50.570;10.428;2022-11-12T16:53:26;3.60;;;3.00;;
60032;SDS011;45905;50.570;10.428;2022-11-12T16:56:13;7.30;;;3.93;;
60032;SDS011;45905;50.570;10.428;2022-11-12T16:59:05;5.10;;;4.20;;
60032;SDS011;45905;50.570;10.428;2022-11-12T17:01:50;3.50;;;2.43;;
60032;SDS011;45905;50.570;10.428;2022-11-12T17:04:36;5.43;;;3.60;;
60032;SDS011;45905;50.570;10.428;2022-11-12T17:07:22;2.60;;;1.70;;
60032;SDS011;45905;50.570;10.428;2022-11-12T17:10:08;3.87;;;3.17;;
60032;SDS011;45905;50.570;10.428;2022-11-12T17:12:54;4.10;;;2.33;;
60032;SDS011;45905;50.570;10.428;2022-11-12T17:15:39;3.63;;;2.10;;
60032;SDS011;45905;50.570;10.428;2022-11-12T17:18:25;4.23;;;2.30;;
60032;SDS011;45905;50.570;10.428;2022-11-12T17:21:14;1.90;;;1.23;;
60032;SDS011;45905;50.570;10.428;2022-11-12T17:24:02;1.53;;;1.30;;
60032;SDS011;45905;50.570;10.428;2022-11-12T17:26:49;3.37;;;1.70;;
60032;SDS011;45905;50.570;10.428;2022-11-12T17:29:34;3.67;;;2.20;;
60032;SDS011;45905;50.570;10.428;2022-11-12T17:32:20;6.30;;;2.20;;
60032;SDS011;45905;50.570;10.428;2022-11-12T17:35:06;3.40;;;2.30;;
60032;SDS011;45905;50.570;10.428;2022-11-12T17:37:51;3.10;;;1.60;;
60032;SDS011;45905;50.570;10.428;2022-11-12T17:40:37;2.37;;;2.03;;
60032;SDS011;45905;50.570;10.428;2022-11-12T17:43:23;3.83;;;3.50;;
60032;SDS011;45905;50.570;10.428;2022-11-12T17:46:11;4.13;;;3.77;;
60032;SDS011;45905;50.570;10.428;2022-11-12T17:48:58;5.87;;;3.00;;
60032;SDS011;45905;50.570;10.428;2022-11-12T17:51:44;2.27;;;2.07;;
60032;SDS011;45905;50.570;10.428;2022-11-12T17:54:30;2.83;;;2.43;;
60032;SDS011;45905;50.570;10.428;2022-11-12T17:57:15;3.47;;;2.10;;
60032;SDS011;45905;50.570;10.428;2022-11-12T18:00:01;1.77;;;1.23;;
60032;SDS011;45905;50.570;10.428;2022-11-12T18:02:47;3.60;;;1.93;;
60032;SDS011;45905;50.570;10.428;2022-11-12T18:05:33;1.80;;;1.27;;
60032;SDS011;45905;50.570;10.428;2022-11-12T18:08:19;2.43;;;1.97;;
60032;SDS011;45905;50.570;10.428;2022-11-12T18:11:05;5.10;;;2.47;;
60032;SDS011;45905;50.570;10.428;2022-11-12T18:13:55;6.93;;;3.40;;
60032;SDS011;45905;50.570;10.428;2022-11-12T18:16:41;5.77;;;3.13;;
60032;SDS011;45905;50.570;10.428;2022-11-12T18:19:27;3.53;;;3.07;;
60032;SDS011;45905;50.570;10.428;2022-11-12T18:22:14;5.10;;;3.17;;
60032;SDS011;45905;50.570;10.428;2022-11-12T18:25:00;7.17;;;4.30;;
60032;SDS011;45905;50.570;10.428;2022-11-12T18:27:45;12.53;;;4.87;;
60032;SDS011;45905;50.570;10.428;2022-11-12T18:30:31;3.00;;;2.67;;
60032;SDS011;45905;50.570;10.428;2022-11-12T18:33:18;10.27;;;3.47;;
60032;SDS011;45905;50.570;10.428;2022-11-12T18:36:09;4.50;;;2.50;;
60032;SDS011;45905;50.570;10.428;2022-11-12T18:38:58;5.10;;;4.30;;
60032;SDS011;45905;50.570;10.428;2022-11-12T18:41:48;3.80;;;2.73;;
60032;SDS011;45905;50.570;10.428;2022-11-12T18:44:35;3.00;;;2.60;;
60032;SDS011;45905;50.570;10.428;2022-11-12T18:47:20;3.30;;;1.87;;
60032;SDS011;45905;50.570;10.428;2022-11-12T18:50:06;4.73;;;3.87;;
60032;SDS011;45905;50.570;10.428;2022-11-12T18:52:53;3.20;;;2.63;;
60032;SDS011;45905;50.570;10.428;2022-11-12T18:55:38;5.07;;;3.67;;
60032;SDS011;45905;50.570;10.428;2022-11-12T18:58:24;9.27;;;4.67;;
60032;SDS011;45905;50.570;10.428;2022-11-12T19:01:19;5.53;;;3.00;;
60032;SDS011;45905;50.570;10.428;2022-11-12T19:04:07;7.77;;;4.57;;
60032;SDS011;45905;50.570;10.428;2022-11-12T19:06:55;6.53;;;3.67;;
60032;SDS011;45905;50.570;10.428;2022-11-12T19:09:42;6.20;;;4.40;;
60032;SDS011;45905;50.570;10.428;2022-11-12T19:12:27;8.27;;;4.07;;
60032;SDS011;45905;50.570;10.428;2022-11-12T19:15:13;13.40;;;5.93;;
60032;SDS011;45905;50.570;10.428;2022-11-12T19:17:59;14.03;;;5.27;;
60032;SDS011;45905;50.570;10.428;2022-11-12T19:20:45;10.70;;;4.50;;
60032;SDS011;45905;50.570;10.428;2022-11-12T19:23:32;21.10;;;6.13;;
60032;SDS011;45905;50.570;10.428;2022-11-12T19:26:18;8.00;;;4.20;;
60032;SDS011;45905;50.570;10.428;2022-11-12T19:29:06;6.00;;;4.43;;
60032;SDS011;45905;50.570;10.428;2022-11-12T19:31:52;6.80;;;4.70;;
60032;SDS011;45905;50.570;10.428;2022-11-12T19:34:37;9.10;;;3.17;;
60032;SDS011;45905;50.570;10.428;2022-11-12T19:37:23;3.87;;;3.50;;
60032;SDS011;45905;50.570;10.428;2022-11-12T19:40:18;7.87;;;4.50;;
60032;SDS011;45905;50.570;10.428;2022-11-12T19:43:03;10.13;;;6.20;;
60032;SDS011;45905;50.570;10.428;2022-11-12T19:45:49;19.63;;;5.77;;
60032;SDS011;45905;50.570;10.428;2022-11-12T19:48:35;6.50;;;5.10;;
60032;SDS011;45905;50.570;10.428;2022-11-12T19:51:21;14.17;;;5.80;;
60032;SDS011;45905;50.570;10.428;2022-11-12T19:54:08;12.20;;;4.90;;
60032;SDS011;45905;50.570;10.428;2022-11-12T19:56:55;4.70;;;3.97;;
60032;SDS011;45905;50.570;10.428;2022-11-12T19:59:40;5.90;;;4.30;;
60032;SDS011;45905;50.570;10.428;2022-11-12T20:02:26;7.23;;;5.07;;
60032;SDS011;45905;50.570;10.428;2022-11-12T20:05:12;8.03;;;4.97;;
60032;SDS011;45905;50.570;10.428;2022-11-12T20:07:58;12.10;;;6.40;;
60032;SDS011;45905;50.570;10.428;2022-11-12T20:10:44;18.17;;;5.90;;
60032;SDS011;45905;50.570;10.428;2022-11-12T20:13:30;5.73;;;5.00;;
60032;SDS011;45905;50.570;10.428;2022-11-12T20:16:16;7.27;;;4.83;;
60032;SDS011;45905;50.570;10.428;2022-11-12T20:19:09;9.90;;;5.90;;
60032;SDS011;45905;50.570;10.428;2022-11-12T20:21:55;8.40;;;6.00;;
60032;SDS011;45905;50.570;10.428;2022-11-12T20:24:41;8.73;;;5.10;;
60032;SDS011;45905;50.570;10.428;2022-11-12T20:27:27;7.70;;;4.33;;
60032;SDS011;45905;50.570;10.428;2022-11-12T20:30:12;6.37;;;3.67;;
60032;SDS011;45905;50.570;10.428;2022-11-12T20:32:58;3.40;;;3.10;;
60032;SDS011;45905;50.570;10.428;2022-11-12T20:35:43;8.63;;;4.20;;
60032;SDS011;45905;50.570;10.428;2022-11-12T20:38:29;10.97;;;4.47;;
60032;SDS011;45905;50.570;10.428;2022-11-12T20:41:16;8.17;;;4.50;;
60032;SDS011;45905;50.570;10.428;2022-11-12T20:44:10;12.00;;;3.13;;
60032;SDS011;45905;50.570;10.428;2022-11-12T20:46:55;4.70;;;4.23;;
60032;SDS011;45905;50.570;10.428;2022-11-12T20:49:41;7.03;;;3.53;;
60032;SDS011;45905;50.570;10.428;2022-11-12T20:52:27;2.73;;;2.53;;
60032;SDS011;45905;50.570;10.428;2022-11-12T20:55:12;7.83;;;4.10;;
60032;SDS011;45905;50.570;10.428;2022-11-12T20:57:58;8.40;;;3.40;;
60032;SDS011;45905;50.570;10.428;2022-11-12T21:00:44;13.03;;;5.90;;
60032;SDS011;45905;50.570;10.428;2022-11-12T21:03:30;12.93;;;6.33;;
60032;SDS011;45905;50.570;10.428;2022-11-12T21:06:17;10.60;;;6.73;;
60032;SDS011;45905;50.570;10.428;2022-11-12T21:09:06;7.57;;;4.67;;
60032;SDS011;45905;50.570;10.428;2022-11-12T21:11:52;8.97;;;6.03;;
60032;SDS011;45905;50.570;10.428;2022-11-12T21:14:37;7.27;;;4.20;;
60032;SDS011;45905;50.570;10.428;2022-11-12T21:17:23;10.80;;;6.40;;
60032;SDS011;45905;50.570;10.428;2022-11-12T21:20:09;13.53;;;4.50;;
60032;SDS011;45905;50.570;10.428;2022-11-12T21:22:55;8.03;;;4.90;;
60032;SDS011;45905;50.570;10.428;2022-11-12T21:25:41;8.00;;;5.80;;
60032;SDS011;45905;50.570;10.428;2022-11-12T21:28:27;4.07;;;3.70;;
60032;SDS011;45905;50.570;10.428;2022-11-12T21:31:14;6.87;;;4.50;;
60032;SDS011;45905;50.570;10.428;2022-11-12T21:34:05;9.80;;;5.00;;
60032;SDS011;45905;50.570;10.428;2022-11-12T21:36:51;5.10;;;4.43;;
60032;SDS011;45905;50.570;10.428;2022-11-12T21:39:36;6.40;;;5.17;;
60032;SDS011;45905;50.570;10.428;2022-11-12T21:42:22;7.43;;;4.40;;
60032;SDS011;45905;50.570;10.428;2022-11-12T21:45:08;3.90;;;3.30;;
60032;SDS011;45905;50.570;10.428;2022-11-12T21:47:55;6.23;;;4.50;;
60032;SDS011;45905;50.570;10.428;2022-11-12T21:50:40;8.80;;;4.30;;
60032;SDS011;45905;50.570;10.428;2022-11-12T21:53:26;8.77;;;3.90;;
60032;SDS011;45905;50.570;10.428;2022-11-12T21:56:13;9.00;;;4.40;;
60032;SDS011;45905;50.570;10.428;2022-11-12T21:59:02;3.40;;;2.77;;
60032;SDS011;45905;50.570;10.428;2022-11-12T22:01:48;5.23;;;2.93;;
60032;SDS011;45905;50.570;10.428;2022-11-12T22:04:33;6.33;;;4.30;;
60032;SDS011;45905;50.570;10.428;2022-11-12T22:07:19;9.43;;;5.70;;
60032;SDS011;45905;50.570;10.428;2022-11-12T22:10:05;4.23;;;3.20;;
60032;SDS011;45905;50.570;10.428;2022-11-12T22:12:51;5.63;;;4.43;;
60032;SDS011;45905;50.570;10.428;2022-11-12T22:15:57;4.57;;;2.93;;
60032;SDS011;45905;50.570;10.428;2022-11-12T22:18:48;5.60;;;3.60;;
60032;SDS011;45905;50.570;10.428;2022-11-12T22:21:36;4.37;;;2.93;;
60032;SDS011;45905;50.570;10.428;2022-11-12T22:24:24;3.33;;;2.50;;
60032;SDS011;45905;50.570;10.428;2022-11-12T22:27:09;5.20;;;2.50;;
60032;SDS011;45905;50.570;10.428;2022-11-12T22:29:55;7.77;;;4.80;;
60032;SDS011;45905;50.570;10.428;2022-11-12T22:32:41;1.87;;;1.73;;
60032;SDS011;45905;50.570;10.428;2022-11-12T22:35:26;4.27;;;2.70;;
60032;SDS011;45905;50.570;10.428;2022-11-12T22:38:12;5.77;;;2.70;;
60032;SDS011;45905;50.570;10.428;2022-11-12T22:41:02;3.50;;;2.07;;
60032;SDS011;45905;50.570;10.428;2022-11-12T22:43:50;7.50;;;2.17;;
60032;SDS011;45905;50.570;10.428;2022-11-12T22:46:38;3.63;;;2.47;;
60032;SDS011;45905;50.570;10.428;2022-11-12T22:49:24;4.40;;;2.90;;
60032;SDS011;45905;50.570;10.428;2022-11-12T22:52:10;2.13;;;2.00;;
60032;SDS011;45905;50.570;10.428;2022-11-12T22:54:55;3.47;;;2.67;;
60032;SDS011;45905;50.570;10.428;2022-11-12T22:57:41;3.00;;;2.53;;
60032;SDS011;45905;50.570;10.428;2022-11-12T23:00:27;6.60;;;3.00;;
60032;SDS011;45905;50.570;10.428;2022-11-12T23:03:15;4.60;;;2.90;;
60032;SDS011;45905;50.570;10.428;2022-11-12T23:06:02;5.10;;;3.10;;
60032;SDS011;45905;50.570;10.428;2022-11-12T23:08:53;2.97;;;1.97;;
60032;SDS011;45905;50.570;10.428;2022-11-12T23:11:41;3.50;;;2.47;;
60032;SDS011;45905;50.570;10.428;2022-11-12T23:14:26;3.13;;;2.87;;
60032;SDS011;45905;50.570;10.428;2022-11-12T23:17:13;3.27;;;2.90;;
60032;SDS011;45905;50.570;10.428;2022-11-12T23:19:58;3.50;;;2.97;;
60032;SDS011;45905;50.570;10.428;2022-11-12T23:22:44;2.70;;;2.00;;
60032;SDS011;45905;50.570;10.428;2022-11-12T23:25:31;3.50;;;2.60;;
60032;SDS011;45905;50.570;10.428;2022-11-12T23:28:17;4.77;;;2.30;;
60032;SDS011;45905;50.570;10.428;2022-11-12T23:31:03;2.60;;;2.40;;
60032;SDS011;45905;50.570;10.428;2022-11-12T23:33:55;6.37;;;2.27;;
60032;SDS011;45905;50.570;10.428;2022-11-12T23:36:44;3.17;;;2.93;;
60032;SDS011;45905;50.570;10.428;2022-11-12T23:39:29;3.07;;;1.80;;
60032;SDS011;45905;50.570;10.428;2022-11-12T23:42:15;3.03;;;2.60;;
60032;SDS011;45905;50.570;10.428;2022-11-12T23:45:00;4.10;;;2.93;;
60032;SDS011;45905;50.570;10.428;2022-11-12T23:47:46;2.90;;;1.50;;
60032;SDS011;45905;50.570;10.428;2022-11-12T23:50:31;3.13;;;2.27;;
60032;SDS011;45905;50.570;10.428;2022-11-12T23:53:17;5.53;;;2.83;;
60032;SDS011;45905;50.570;10.428;2022-11-12T23:56:04;4.57;;;2.47;;
60032;SDS011;45905;50.570;10.428;2022-11-12T23:58:53;2.57;;;2.30;;
